This is the latest recevied weather packets stored in our database for station/object JG6YPS-13. If no packets are shown the sender has not sent any weather packets the latest 10 day(s).
| Time | Temp. | Humidity | Pressure | Rain* | Wind** | Luminosity | Snow |
|---|---|---|---|---|---|---|---|
| 1777730427 | 14.44° C | 78% | 1013.1 hPa | 0 mm | - | - | - |
| 1777729828 | 15° C | 75% | 1013 hPa | 0 mm | - | - | - |
| 1777729229 | 15° C | 75% | 1012.9 hPa | 0 mm | - | - | - |
| 1777728629 | 14.44° C | 77% | 1013.1 hPa | 0 mm | - | - | - |
| 1777728030 | 15° C | 77% | 1013.2 hPa | 0 mm | - | - | - |
| 1777727430 | 15° C | 78% | 1013.4 hPa | 0 mm | - | - | - |
| 1777726831 | 15° C | 77% | 1013.4 hPa | 0 mm | - | - | - |
| 1777726233 | 16.11° C | 73% | 1013.2 hPa | 0 mm | - | - | - |
| 1777725632 | 16.11° C | 72% | 1013 hPa | 0 mm | - | - | - |
| 1777725033 | 16.11° C | 71% | 1013 hPa | 0 mm | - | - | - |
| 1777724433 | 16.11° C | 72% | 1013.1 hPa | 0 mm | - | - | - |
| 1777723834 | 16.11° C | 73% | 1013.2 hPa | 0 mm | - | - | - |
| 1777723235 | 16.67° C | 70% | 1013.1 hPa | 0 mm | - | - | - |
| 1777722635 | 16.67° C | 70% | 1013 hPa | 0 mm | - | - | - |
| 1777722036 | 17.22° C | 69% | 1012.8 hPa | 0 mm | - | - | - |
| 1777721436 | 17.22° C | 68% | 1012.6 hPa | 0 mm | - | - | - |
| 1777720836 | 17.78° C | 66% | 1012.4 hPa | 0 mm | - | - | - |
| 1777720237 | 18.33° C | 63% | 1012.4 hPa | 0 mm | - | - | - |
| 1777719637 | 18.33° C | 65% | 1012.2 hPa | 0 mm | - | - | - |
| 1777719038 | 18.33° C | 62% | 1012.1 hPa | 0 mm | - | - | - |
| 1777718438 | 18.33° C | 64% | 1012.2 hPa | 0 mm | - | - | - |
| 1777717839 | 18.89° C | 64% | 1012.1 hPa | 0 mm | - | - | - |
| 1777717239 | 19.44° C | 63% | 1012.1 hPa | 0 mm | - | - | - |
| 1777716640 | 19.44° C | 62% | 1012.1 hPa | 0 mm | - | - | - |
| 1777716040 | 20° C | 62% | 1012.1 hPa | 0 mm | - | - | - |
* Rain latest hour (hover to see other rain measurements)
** Current wind speed in m/s (hover to see current wind gust speed)